Time;durP1;ratioP1;P1;durP2;ratioP2;P2;SDS_P1;SDS_P2;PMS_P1;PMS_P2;Temp;Humidity;BMP_temperature;BMP_pressure;BME280_temperature;BME280_humidity;BME280_pressure;Samples;Min_cycle;Max_cycle;Signal;HPM_P1;HPM_P2
2023/02/09 00:01:25;;;;;;;2.83;1.73;;;20.70;45.40;;;;;;5021679;28;20034;-64
2023/02/09 00:03:51;;;;;;;3.17;1.80;;;20.70;45.40;;;;;;5018894;28;20100;-64
2023/02/09 00:06:19;;;;;;;2.33;1.60;;;20.70;45.50;;;;;;5021224;28;20109;-66
2023/02/09 00:08:45;;;;;;;2.67;1.70;;;20.70;45.50;;;;;;5020116;28;20091;-64
2023/02/09 00:11:21;;;;;;;2.35;1.60;;;20.70;45.50;;;;;;5021208;28;20452;-64
2023/02/09 00:13:46;;;;;;;2.58;1.73;;;20.70;45.50;;;;;;5021046;28;20056;-64
2023/02/09 00:16:12;;;;;;;2.38;1.60;;;20.70;46.10;;;;;;5021714;28;20038;-64
2023/02/09 00:18:38;;;;;;;2.00;1.50;;;20.60;45.50;;;;;;5021362;28;20555;-65
2023/02/09 00:21:07;;;;;;;2.47;1.70;;;20.60;45.60;;;;;;5019684;28;20152;-64
2023/02/09 00:23:35;;;;;;;2.42;1.48;;;20.60;45.60;;;;;;5020641;28;20484;-64
2023/02/09 00:26:04;;;;;;;2.63;1.73;;;20.60;46.10;;;;;;5021655;28;20132;-64
2023/02/09 00:28:31;;;;;;;2.97;1.60;;;20.50;45.60;;;;;;5020611;28;20440;-64
2023/02/09 00:30:56;;;;;;;2.30;1.38;;;20.50;45.60;;;;;;5028782;28;20037;-64
2023/02/09 00:33:22;;;;;;;2.60;1.70;;;20.50;45.60;;;;;;5025906;28;20136;-64
2023/02/09 00:35:48;;;;;;;2.25;1.60;;;20.60;45.70;;;;;;5022805;28;20041;-64
2023/02/09 00:38:14;;;;;;;2.20;1.50;;;20.50;45.70;;;;;;5022186;28;20030;-64
2023/02/09 00:40:40;;;;;;;2.10;1.40;;;20.50;45.70;;;;;;5021881;28;20021;-64
2023/02/09 00:43:07;;;;;;;2.13;1.38;;;20.50;45.70;;;;;;5018914;28;20382;-64
2023/02/09 00:45:34;;;;;;;2.90;1.50;;;20.50;45.70;;;;;;5023430;28;20049;-64
2023/02/09 00:48:00;;;;;;;2.45;1.60;;;20.40;45.60;;;;;;5018394;28;20052;-64
2023/02/09 00:50:27;;;;;;;2.70;1.55;;;20.40;45.70;;;;;;5020071;28;20098;-64
2023/02/09 00:52:52;;;;;;;2.65;1.42;;;20.40;45.70;;;;;;5020336;28;20034;-64
2023/02/09 00:55:18;;;;;;;2.10;1.40;;;20.40;45.70;;;;;;5020616;28;20038;-65
2023/02/09 00:57:44;;;;;;;2.28;1.50;;;20.40;45.80;;;;;;5019607;28;20025;-64
2023/02/09 01:00:11;;;;;;;2.17;1.55;;;20.40;45.80;;;;;;5020898;28;20025;-64
2023/02/09 01:02:37;;;;;;;2.13;1.60;;;20.40;45.80;;;;;;5021200;28;20144;-64
2023/02/09 01:05:03;;;;;;;1.90;1.48;;;20.40;45.90;;;;;;5021206;28;20048;-65
2023/02/09 01:07:28;;;;;;;2.58;1.60;;;20.40;45.90;;;;;;5016717;28;20022;-65
2023/02/09 01:09:54;;;;;;;2.92;1.67;;;20.40;45.90;;;;;;5018516;28;20033;-65
2023/02/09 01:12:20;;;;;;;1.70;1.25;;;20.30;45.80;;;;;;5020369;28;20038;-63
2023/02/09 01:14:45;;;;;;;2.03;1.30;;;20.30;45.90;;;;;;5019949;28;20116;-63
2023/02/09 01:17:11;;;;;;;2.50;1.50;;;20.30;45.90;;;;;;5022309;28;20205;-63
2023/02/09 01:19:37;;;;;;;2.28;1.50;;;20.30;45.90;;;;;;5021602;28;20092;-64
2023/02/09 01:22:03;;;;;;;2.13;1.38;;;20.30;45.90;;;;;;5020355;28;20453;-64
2023/02/09 01:24:29;;;;;;;1.92;1.38;;;20.30;45.90;;;;;;5018552;28;20025;-64
2023/02/09 01:26:55;;;;;;;2.05;1.27;;;20.20;46.00;;;;;;5015811;28;20388;-65
2023/02/09 01:29:21;;;;;;;2.00;1.40;;;20.20;46.00;;;;;;5018201;28;20029;-64
2023/02/09 01:31:47;;;;;;;2.00;1.50;;;20.20;46.00;;;;;;5020825;28;20052;-64
2023/02/09 01:34:15;;;;;;;2.05;1.42;;;20.20;46.00;;;;;;5017026;28;20021;-65
2023/02/09 01:36:41;;;;;;;2.17;1.40;;;20.20;46.00;;;;;;5023303;28;20022;-64
2023/02/09 01:39:07;;;;;;;2.13;1.42;;;20.20;46.00;;;;;;5019155;28;20075;-64
2023/02/09 01:41:33;;;;;;;3.00;1.60;;;20.20;46.10;;;;;;5020071;28;20037;-64
2023/02/09 01:44:03;;;;;;;2.38;1.50;;;20.10;46.00;;;;;;5020603;28;20029;-63
2023/02/09 01:46:35;;;;;;;2.50;1.55;;;20.10;46.00;;;;;;5018709;28;20507;-64
2023/02/09 01:49:06;;;;;;;2.38;1.52;;;20.10;46.10;;;;;;5016804;28;20029;-65
2023/02/09 01:51:37;;;;;;;2.20;1.40;;;20.10;46.10;;;;;;5018741;28;20026;-64
2023/02/09 01:54:10;;;;;;;2.10;1.30;;;20.10;46.10;;;;;;5020403;28;20034;-65
2023/02/09 01:56:39;;;;;;;2.30;1.50;;;20.10;46.20;;;;;;5021409;28;20021;-64
2023/02/09 01:59:06;;;;;;;2.45;1.60;;;20.10;46.20;;;;;;5018444;28;20118;-64
2023/02/09 02:01:32;;;;;;;2.30;1.40;;;20.00;46.10;;;;;;5017190;28;20362;-65
2023/02/09 02:03:57;;;;;;;1.73;1.27;;;20.00;46.20;;;;;;5018411;28;20026;-63
2023/02/09 02:06:23;;;;;;;2.40;1.40;;;20.00;46.20;;;;;;5019140;28;20057;-64
2023/02/09 02:08:57;;;;;;;2.10;1.50;;;20.00;46.20;;;;;;5019263;28;20370;-65
2023/02/09 02:11:26;;;;;;;2.00;1.50;;;20.00;46.20;;;;;;5015425;28;20034;-64
2023/02/09 02:13:52;;;;;;;2.17;1.45;;;20.00;46.20;;;;;;5020461;28;20496;-64
2023/02/09 02:16:35;;;;;;;2.42;1.40;;;20.00;46.20;;;;;;5019727;28;20034;-64
2023/02/09 02:19:23;;;;;;;2.30;1.33;;;20.00;46.30;;;;;;5020570;28;20036;-64
2023/02/09 02:22:21;;;;;;;1.80;1.20;;;20.00;46.30;;;;;;5023000;28;20022;-64
2023/02/09 02:25:08;;;;;;;2.15;1.50;;;19.90;46.30;;;;;;5016089;28;20168;-63
2023/02/09 02:28:06;;;;;;;2.47;1.48;;;19.90;46.30;;;;;;5017567;28;20500;-64
2023/02/09 02:30:53;;;;;;;2.20;1.40;;;19.90;46.80;;;;;;5019322;28;20040;-64
2023/02/09 02:33:25;;;;;;;2.28;1.38;;;19.90;46.40;;;;;;5015250;28;20033;-65
2023/02/09 02:36:21;;;;;;;2.20;1.38;;;19.90;46.40;;;;;;5013641;28;20495;-64
2023/02/09 02:39:21;;;;;;;1.80;1.30;;;19.90;46.40;;;;;;5018487;28;20026;-64
2023/02/09 02:44:58;;;;;;;2.00;1.27;;;19.90;47.00;;;;;;5020903;28;20111;-64
2023/02/09 02:47:27;;;;;;;1.73;1.30;;;19.80;46.40;;;;;;5019227;28;20351;-63
2023/02/09 02:49:57;;;;;;;2.00;1.30;;;19.90;46.50;;;;;;5018343;28;20038;-63
2023/02/09 02:52:23;;;;;;;2.33;1.52;;;19.80;46.50;;;;;;5018845;28;20056;-63
2023/02/09 02:54:58;;;;;;;2.10;1.40;;;19.80;46.50;;;;;;5023014;28;20030;-65
2023/02/09 02:57:28;;;;;;;2.33;1.40;;;19.80;46.50;;;;;;5023920;28;20084;-64
2023/02/09 03:00:03;;;;;;;1.70;1.20;;;19.80;46.50;;;;;;5023023;28;20037;-65
2023/02/09 03:02:47;;;;;;;2.08;1.40;;;19.80;46.50;;;;;;5021057;28;20397;-63
2023/02/09 03:05:15;;;;;;;2.15;1.33;;;19.80;46.50;;;;;;5021933;28;20029;-64
2023/02/09 03:07:41;;;;;;;2.13;1.30;;;19.80;46.50;;;;;;5029930;28;20028;-65
2023/02/09 03:10:42;;;;;;;1.90;1.30;;;19.80;46.60;;;;;;5022169;28;20384;-63
2023/02/09 03:13:17;;;;;;;1.98;1.23;;;19.80;46.60;;;;;;4982883;28;20026;-65
2023/02/09 03:16:20;;;;;;;2.00;1.30;;;19.70;46.60;;;;;;5017747;28;20381;-64
2023/02/09 03:19:04;;;;;;;2.10;1.23;;;19.70;46.60;;;;;;5022305;28;20029;-63
2023/02/09 03:21:51;;;;;;;2.45;1.35;;;19.70;46.60;;;;;;5023197;28;20018;-63
2023/02/09 03:24:25;;;;;;;1.90;1.30;;;19.70;46.60;;;;;;5021060;28;20049;-64
2023/02/09 03:27:14;;;;;;;2.45;1.27;;;19.70;46.60;;;;;;5022367;28;20112;-65
2023/02/09 03:29:42;;;;;;;1.58;1.20;;;19.70;46.60;;;;;;5020218;28;20025;-64
2023/02/09 03:32:08;;;;;;;1.88;1.30;;;19.70;46.60;;;;;;5023009;28;20033;-65
2023/02/09 03:34:34;;;;;;;1.42;1.10;;;19.70;46.60;;;;;;5019403;28;20037;-63
2023/02/09 03:37:00;;;;;;;2.05;1.27;;;19.70;46.70;;;;;;5017148;28;20484;-63
2023/02/09 03:39:26;;;;;;;1.80;1.25;;;19.70;46.70;;;;;;5022047;28;20030;-64
2023/02/09 03:41:51;;;;;;;1.75;1.15;;;19.60;46.60;;;;;;5020437;28;20033;-63
2023/02/09 03:44:26;;;;;;;2.05;1.27;;;19.60;46.70;;;;;;5020674;28;20477;-64
2023/02/09 03:47:04;;;;;;;1.67;1.20;;;19.60;46.70;;;;;;5021679;28;20131;-64
2023/02/09 03:49:37;;;;;;;1.83;1.30;;;19.70;46.70;;;;;;5023775;28;20028;-64
2023/02/09 03:52:04;;;;;;;2.03;1.30;;;19.60;46.70;;;;;;5029853;28;20507;-64
2023/02/09 03:54:31;;;;;;;1.50;1.08;;;19.60;46.70;;;;;;5019882;28;20469;-63
2023/02/09 03:56:58;;;;;;;1.60;1.20;;;19.60;46.70;;;;;;5019344;28;20064;-64
2023/02/09 03:59:25;;;;;;;1.83;1.13;;;19.60;46.80;;;;;;5020347;28;20537;-63
2023/02/09 04:01:55;;;;;;;1.77;1.20;;;19.60;46.70;;;;;;5025317;28;20026;-64
2023/02/09 04:04:20;;;;;;;1.88;1.15;;;19.60;46.70;;;;;;5020283;28;20421;-65
2023/02/09 04:06:47;;;;;;;1.92;1.30;;;19.60;46.80;;;;;;5021489;28;20022;-63
2023/02/09 04:09:13;;;;;;;1.90;1.30;;;19.60;46.80;;;;;;5016483;28;20071;-64
2023/02/09 04:11:39;;;;;;;2.22;1.30;;;19.60;46.80;;;;;;5019882;28;20033;-64
2023/02/09 04:14:05;;;;;;;1.67;1.23;;;19.60;46.80;;;;;;5020573;28;20033;-63
2023/02/09 04:16:31;;;;;;;1.50;1.05;;;19.60;46.80;;;;;;5021816;28;20151;-64
2023/02/09 04:18:57;;;;;;;1.67;1.15;;;19.60;46.80;;;;;;5021690;28;20026;-64
2023/02/09 04:21:22;;;;;;;2.17;1.33;;;19.60;46.80;;;;;;5019864;28;20037;-64
2023/02/09 04:23:48;;;;;;;1.83;1.20;;;19.60;46.80;;;;;;5022670;28;20053;-63
2023/02/09 04:26:14;;;;;;;1.67;1.20;;;19.60;46.80;;;;;;5028538;28;20486;-64
2023/02/09 04:28:40;;;;;;;1.67;1.20;;;19.50;46.70;;;;;;5020803;28;20144;-65
2023/02/09 04:31:06;;;;;;;1.98;1.20;;;19.50;46.70;;;;;;5022425;28;20490;-64
2023/02/09 04:33:32;;;;;;;1.80;1.20;;;19.50;46.70;;;;;;5023562;28;20058;-64
2023/02/09 04:35:57;;;;;;;1.42;1.15;;;19.50;46.80;;;;;;5018358;28;20081;-64
2023/02/09 04:38:24;;;;;;;1.90;1.20;;;19.50;46.70;;;;;;5035746;28;20384;-64
2023/02/09 04:40:52;;;;;;;1.73;1.20;;;19.50;46.70;;;;;;5018006;28;20026;-63
2023/02/09 04:43:19;;;;;;;1.67;1.10;;;19.50;46.80;;;;;;5020982;28;20053;-64
2023/02/09 04:45:45;;;;;;;1.73;1.13;;;19.50;46.80;;;;;;5021796;28;20026;-64
2023/02/09 04:48:13;;;;;;;1.88;1.20;;;19.50;46.80;;;;;;5020407;28;20140;-66
2023/02/09 04:50:39;;;;;;;1.55;1.10;;;19.50;46.80;;;;;;5018342;28;20393;-64
2023/02/09 04:53:05;;;;;;;2.10;1.38;;;19.50;46.80;;;;;;5017141;28;20076;-64
2023/02/09 04:55:30;;;;;;;1.70;1.10;;;19.50;46.90;;;;;;5019474;28;20437;-63
2023/02/09 05:00:40;;;;;;;1.70;1.20;;;19.50;46.90;;;;;;5019974;28;20056;-65
2023/02/09 05:03:06;;;;;;;1.33;1.00;;;19.50;46.90;;;;;;5018031;28;20030;-63
2023/02/09 05:05:33;;;;;;;1.67;1.10;;;19.50;46.90;;;;;;5017102;28;20034;-64
2023/02/09 05:07:58;;;;;;;2.00;1.30;;;19.50;47.00;;;;;;5021858;28;20026;-64
2023/02/09 05:10:24;;;;;;;2.00;1.30;;;19.50;47.00;;;;;;5023750;28;20163;-64
2023/02/09 05:12:51;;;;;;;2.30;1.35;;;19.40;46.90;;;;;;5018770;28;20104;-64
2023/02/09 05:15:16;;;;;;;1.67;1.20;;;19.40;47.00;;;;;;5017875;28;20034;-64
2023/02/09 05:17:42;;;;;;;2.13;1.45;;;19.40;47.00;;;;;;5018302;28;20033;-64
2023/02/09 05:20:08;;;;;;;1.90;1.20;;;19.40;47.00;;;;;;5021970;28;20469;-64
2023/02/09 05:22:34;;;;;;;2.13;1.30;;;19.40;47.10;;;;;;5018383;28;20033;-64
2023/02/09 05:24:59;;;;;;;2.38;1.30;;;19.40;47.10;;;;;;5019034;28;20036;-64
2023/02/09 05:27:25;;;;;;;1.92;1.23;;;19.40;47.10;;;;;;5024428;28;20036;-64
2023/02/09 05:29:51;;;;;;;1.90;1.25;;;19.40;47.10;;;;;;5020157;28;20107;-64
2023/02/09 05:32:16;;;;;;;2.10;1.40;;;19.40;47.20;;;;;;5035089;28;20048;-64
2023/02/09 05:34:42;;;;;;;2.28;1.40;;;19.40;47.20;;;;;;5018850;28;20038;-65
2023/02/09 05:37:07;;;;;;;2.13;1.30;;;19.40;47.20;;;;;;5020765;28;20021;-64
2023/02/09 05:39:33;;;;;;;1.52;1.20;;;19.40;47.20;;;;;;5016995;28;20531;-64
2023/02/09 05:42:16;;;;;;;2.00;1.27;;;19.40;47.30;;;;;;5021316;28;20388;-63
2023/02/09 05:44:47;;;;;;;1.50;1.00;;;19.30;47.30;;;;;;5021659;28;20056;-63
2023/02/09 05:47:15;;;;;;;1.48;1.10;;;19.30;47.30;;;;;;5020131;28;20132;-63
2023/02/09 05:49:41;;;;;;;2.10;1.20;;;19.30;47.40;;;;;;5020365;28;20025;-63
2023/02/09 05:52:07;;;;;;;1.88;1.30;;;19.30;47.50;;;;;;5016370;28;20426;-64
2023/02/09 05:54:33;;;;;;;1.63;1.10;;;19.30;47.50;;;;;;5020003;28;20116;-63
2023/02/09 05:56:58;;;;;;;1.80;1.30;;;19.30;47.50;;;;;;5019510;28;20056;-64
2023/02/09 05:59:24;;;;;;;2.10;1.25;;;19.30;47.60;;;;;;5019767;28;20418;-63
2023/02/09 06:01:50;;;;;;;1.63;1.20;;;19.30;47.60;;;;;;5016528;28;20026;-63
2023/02/09 06:04:16;;;;;;;2.55;1.38;;;19.30;47.60;;;;;;5019941;28;20029;-63
2023/02/09 06:06:41;;;;;;;1.75;1.13;;;19.30;47.70;;;;;;5017306;28;20029;-63
2023/02/09 06:09:07;;;;;;;1.70;1.13;;;19.30;47.70;;;;;;5021529;28;20450;-64
2023/02/09 06:11:33;;;;;;;1.63;1.23;;;19.30;47.80;;;;;;5017086;28;20034;-63
2023/02/09 06:13:59;;;;;;;1.73;1.10;;;19.30;47.70;;;;;;5019152;28;20099;-64
2023/02/09 06:16:25;;;;;;;1.90;1.20;;;19.30;47.80;;;;;;5020241;28;20037;-63
2023/02/09 06:18:50;;;;;;;2.40;1.33;;;19.30;47.80;;;;;;5016715;28;20100;-64
2023/02/09 06:21:16;;;;;;;2.17;1.38;;;19.30;47.80;;;;;;5012127;28;20103;-64
2023/02/09 06:23:42;;;;;;;1.63;1.10;;;19.30;47.90;;;;;;5021019;28;20920;-67
2023/02/09 06:26:10;;;;;;;2.85;1.60;;;19.40;48.30;;;;;;5019655;28;20481;-65
2023/02/09 06:28:36;;;;;;;2.60;1.48;;;19.50;48.40;;;;;;5022273;28;20033;-64
2023/02/09 06:31:02;;;;;;;2.22;1.40;;;19.70;48.50;;;;;;5025322;28;20044;-64
2023/02/09 06:33:28;;;;;;;2.63;1.40;;;19.80;48.50;;;;;;5023100;28;20483;-64
2023/02/09 06:35:53;;;;;;;2.55;1.40;;;20.00;48.50;;;;;;5023645;28;20030;-64
2023/02/09 06:38:19;;;;;;;2.65;1.30;;;20.10;48.60;;;;;;5021973;28;20040;-64
2023/02/09 06:40:46;;;;;;;2.17;1.52;;;20.20;49.20;;;;;;5020430;28;20026;-64
2023/02/09 06:43:11;;;;;;;2.30;1.40;;;20.30;48.70;;;;;;5025995;28;20389;-65
2023/02/09 06:45:38;;;;;;;2.60;1.70;;;20.40;48.60;;;;;;5022205;28;20033;-64
2023/02/09 06:48:05;;;;;;;2.47;1.20;;;20.50;48.70;;;;;;5026661;28;20477;-64
2023/02/09 06:50:31;;;;;;;2.65;1.30;;;20.60;48.70;;;;;;5028118;28;20022;-64
2023/02/09 06:52:58;;;;;;;2.65;1.30;;;20.70;48.80;;;;;;5025021;28;20181;-66
2023/02/09 06:55:23;;;;;;;1.92;1.33;;;20.80;48.80;;;;;;5021909;28;20025;-64
2023/02/09 06:57:49;;;;;;;1.98;1.38;;;21.00;48.60;;;;;;5023935;28;20149;-64
2023/02/09 07:00:15;;;;;;;1.45;0.98;;;21.10;48.60;;;;;;5023155;28;20473;-65
2023/02/09 07:02:43;;;;;;;1.77;1.30;;;21.30;48.60;;;;;;5022546;28;20465;-65
2023/02/09 07:05:13;;;;;;;2.00;1.00;;;21.40;48.50;;;;;;5019604;28;20092;-64
2023/02/09 07:07:39;;;;;;;2.60;1.10;;;21.50;48.50;;;;;;5023490;28;20105;-64
2023/02/09 07:10:07;;;;;;;1.55;1.10;;;21.70;48.10;;;;;;5022523;28;20049;-65
2023/02/09 07:12:32;;;;;;;2.20;1.20;;;21.80;48.10;;;;;;5020877;28;20512;-64
2023/02/09 07:14:58;;;;;;;1.60;0.90;;;22.00;48.00;;;;;;5022198;28;20161;-64
2023/02/09 07:17:24;;;;;;;1.73;0.80;;;22.20;48.30;;;;;;5024184;28;20025;-64
2023/02/09 07:19:49;;;;;;;1.00;0.75;;;22.30;48.00;;;;;;5022382;28;20038;-63
2023/02/09 07:22:15;;;;;;;1.25;0.90;;;22.30;48.10;;;;;;5021045;28;20064;-64
2023/02/09 07:24:41;;;;;;;2.60;1.42;;;22.30;48.30;;;;;;5022750;28;20109;-64
2023/02/09 07:27:06;;;;;;;2.50;1.50;;;22.30;45.50;;;;;;5020487;28;20387;-63
2023/02/09 07:29:32;;;;;;;1.83;1.23;;;22.30;44.60;;;;;;5025856;28;20034;-64
2023/02/09 07:31:58;;;;;;;2.00;1.20;;;22.30;45.00;;;;;;5022311;28;20029;-61
2023/02/09 07:34:24;;;;;;;2.05;1.15;;;22.40;45.00;;;;;;5020090;28;20440;-63
2023/02/09 07:36:50;;;;;;;2.13;1.33;;;22.40;45.00;;;;;;5023033;28;20100;-62
2023/02/09 07:39:15;;;;;;;2.50;1.60;;;22.40;44.60;;;;;;5019794;28;20586;-63
2023/02/09 07:41:41;;;;;;;3.70;1.60;;;22.40;44.10;;;;;;5025671;28;20472;-63
2023/02/09 07:44:08;;;;;;;2.53;1.50;;;22.40;44.10;;;;;;5026340;28;20030;-62
2023/02/09 07:46:34;;;;;;;2.05;1.45;;;22.40;43.70;;;;;;5025956;28;20486;-63
2023/02/09 07:49:00;;;;;;;2.35;1.60;;;22.30;43.50;;;;;;5027028;28;20058;-63
2023/02/09 07:51:27;;;;;;;2.03;1.30;;;22.30;43.50;;;;;;5030059;28;20032;-62
2023/02/09 07:53:54;;;;;;;1.80;1.25;;;22.30;43.60;;;;;;5027509;28;20132;-63
2023/02/09 07:56:20;;;;;;;1.92;1.30;;;22.30;43.90;;;;;;5030626;28;20026;-62
2023/02/09 07:58:46;;;;;;;2.03;1.42;;;22.30;44.10;;;;;;5033224;28;20093;-62
2023/02/09 08:01:12;;;;;;;1.90;1.15;;;22.30;44.20;;;;;;5026337;28;20042;-62
2023/02/09 08:03:39;;;;;;;1.90;1.15;;;22.30;44.20;;;;;;5027274;28;20030;-63
2023/02/09 08:06:23;;;;;;;3.13;1.33;;;22.30;44.30;;;;;;5030831;28;20036;-61
2023/02/09 08:08:50;;;;;;;2.17;1.25;;;22.30;44.30;;;;;;5025474;28;20088;-62
2023/02/09 08:11:23;;;;;;;1.92;1.20;;;22.30;44.30;;;;;;5026085;28;20029;-62
2023/02/09 08:13:51;;;;;;;1.80;1.20;;;22.30;44.30;;;;;;5033552;28;20044;-63
2023/02/09 08:16:21;;;;;;;1.92;1.23;;;22.30;44.30;;;;;;5036591;28;20026;-63
2023/02/09 08:19:00;;;;;;;1.90;1.20;;;22.30;44.40;;;;;;5024312;28;20030;-62
2023/02/09 08:21:27;;;;;;;;;;;22.30;44.40;;;;;;5024761;28;20067;-62
2023/02/09 08:23:55;;;;;;;2.08;1.30;;;22.30;44.30;;;;;;5021518;28;20268;-63
2023/02/09 08:26:21;;;;;;;1.55;1.05;;;22.30;44.30;;;;;;5028042;28;20018;-62
2023/02/09 08:28:47;;;;;;;1.67;1.00;;;22.30;44.40;;;;;;5029026;28;20034;-63
2023/02/09 08:31:16;;;;;;;1.88;1.23;;;22.30;44.40;;;;;;5027626;28;20076;-64
2023/02/09 08:33:43;;;;;;;2.00;1.17;;;22.30;44.30;;;;;;5025125;28;20040;-62
2023/02/09 08:36:10;;;;;;;1.92;1.20;;;22.30;44.40;;;;;;5031920;28;20037;-63
2023/02/09 08:38:36;;;;;;;2.08;1.15;;;22.30;44.30;;;;;;5028931;28;20104;-63
2023/02/09 08:41:04;;;;;;;1.58;1.08;;;22.30;44.40;;;;;;5027518;28;20527;-62
2023/02/09 08:43:30;;;;;;;1.40;1.00;;;22.30;44.40;;;;;;5019383;28;20094;-63
2023/02/09 08:46:01;;;;;;;1.65;0.98;;;22.30;44.40;;;;;;5028684;28;20112;-63
2023/02/09 08:48:33;;;;;;;1.38;1.00;;;22.30;44.30;;;;;;5035474;28;20038;-63
2023/02/09 08:50:59;;;;;;;1.73;1.20;;;22.30;44.80;;;;;;5026946;28;20093;-63
2023/02/09 08:53:25;;;;;;;1.60;1.10;;;22.30;44.40;;;;;;5023843;28;20088;-63
2023/02/09 08:55:51;;;;;;;1.60;1.10;;;22.30;44.30;;;;;;5028241;28;20025;-62
2023/02/09 08:58:16;;;;;;;1.63;1.10;;;22.30;44.40;;;;;;5031481;28;20495;-63
2023/02/09 09:00:42;;;;;;;1.60;1.10;;;22.30;44.40;;;;;;5029052;28;20077;-61
2023/02/09 09:03:07;;;;;;;2.03;1.20;;;22.30;44.40;;;;;;5024522;28;20095;-63
2023/02/09 09:05:34;;;;;;;1.60;1.10;;;22.30;44.40;;;;;;5022251;28;20030;-63
2023/02/09 09:08:00;;;;;;;1.65;1.00;;;22.30;44.50;;;;;;5026604;28;20055;-62
2023/02/09 09:10:26;;;;;;;1.50;1.10;;;22.30;44.60;;;;;;5028154;28;20140;-63
2023/02/09 09:12:52;;;;;;;1.63;1.00;;;22.20;44.60;;;;;;5021528;28;20684;-63
2023/02/09 09:15:18;;;;;;;1.38;1.00;;;22.30;44.70;;;;;;5025513;28;20065;-62
2023/02/09 09:17:43;;;;;;;1.50;1.00;;;22.30;44.70;;;;;;5027821;28;20109;-62
2023/02/09 09:20:09;;;;;;;1.30;0.90;;;22.30;44.70;;;;;;5018713;28;20097;-62
2023/02/09 09:22:35;;;;;;;1.52;0.98;;;22.30;44.70;;;;;;5028560;28;20030;-62
2023/02/09 09:25:01;;;;;;;1.50;1.00;;;22.30;44.70;;;;;;5026039;28;20535;-63
2023/02/09 09:27:27;;;;;;;1.90;1.10;;;22.20;44.70;;;;;;5018200;28;20147;-61
2023/02/09 09:29:53;;;;;;;2.35;1.10;;;22.20;44.80;;;;;;5020177;28;20111;-62
2023/02/09 09:32:23;;;;;;;1.45;1.00;;;22.20;44.90;;;;;;5020075;28;20032;-62
2023/02/09 09:34:52;;;;;;;1.85;1.10;;;22.20;45.40;;;;;;5021595;28;20396;-62
2023/02/09 09:37:18;;;;;;;2.10;1.40;;;22.20;45.60;;;;;;5017198;28;20051;-63
2023/02/09 09:39:44;;;;;;;2.00;1.38;;;22.20;44.50;;;;;;5019719;28;20116;-62
2023/02/09 09:42:42;;;;;;;2.25;1.45;;;22.30;44.20;;;;;;5019294;28;20499;-62
2023/02/09 09:45:14;;;;;;;2.58;1.40;;;22.30;44.00;;;;;;5014699;28;20048;-62
2023/02/09 09:47:42;;;;;;;1.80;1.20;;;22.30;44.10;;;;;;5017743;28;20042;-62
2023/02/09 09:50:30;;;;;;;2.05;1.38;;;22.30;44.10;;;;;;5020092;28;20056;-62
2023/02/09 09:53:02;;;;;;;2.55;1.40;;;22.20;44.00;;;;;;5018367;28;20049;-62
2023/02/09 09:55:30;;;;;;;2.47;1.48;;;22.20;44.00;;;;;;5016635;28;20029;-63
2023/02/09 09:58:00;;;;;;;1.88;1.35;;;22.20;44.00;;;;;;5019057;28;20504;-61
2023/02/09 10:00:28;;;;;;;;;;;22.20;44.00;;;;;;5018073;28;20037;-62
2023/02/09 10:02:53;;;;;;;2.30;1.50;;;22.20;44.00;;;;;;5018397;28;19909;-62
2023/02/09 10:05:28;;;;;;;2.17;1.40;;;22.20;44.10;;;;;;5015273;28;20096;-62
2023/02/09 10:08:00;;;;;;;2.20;1.40;;;22.20;44.10;;;;;;5019991;28;20383;-62
2023/02/09 10:11:04;;;;;;;2.70;1.63;;;22.20;44.20;;;;;;5019539;28;20066;-62
2023/02/09 10:13:51;;;;;;;2.15;1.50;;;22.20;44.30;;;;;;5019913;28;20079;-62
2023/02/09 10:16:29;;;;;;;2.20;1.50;;;22.20;44.30;;;;;;5017235;28;20481;-63
2023/02/09 10:19:02;;;;;;;2.15;1.48;;;22.30;44.30;;;;;;5017877;28;20026;-62
2023/02/09 10:21:33;;;;;;;1.85;1.27;;;22.30;44.30;;;;;;5016769;28;20057;-63
2023/02/09 10:23:58;;;;;;;2.38;1.52;;;22.40;44.20;;;;;;5019596;28;20041;-63
2023/02/09 10:26:26;;;;;;;2.38;1.50;;;22.50;44.10;;;;;;5019386;28;20038;-63
2023/02/09 10:28:57;;;;;;;1.80;1.30;;;22.60;44.00;;;;;;5019379;28;20041;-62
2023/02/09 10:31:30;;;;;;;2.15;1.50;;;22.60;43.90;;;;;;5018777;28;20033;-62
2023/02/09 10:34:01;;;;;;;2.33;1.60;;;22.70;43.90;;;;;;5019276;28;20025;-63
2023/02/09 10:36:31;;;;;;;2.22;1.30;;;22.70;43.80;;;;;;5019255;28;20048;-62
2023/02/09 10:39:14;;;;;;;2.00;1.42;;;22.80;43.80;;;;;;5018142;28;20018;-62
2023/02/09 10:41:42;;;;;;;2.28;1.38;;;22.80;43.70;;;;;;5018697;28;20029;-63
2023/02/09 10:44:27;;;;;;;2.78;1.30;;;22.90;43.90;;;;;;5019488;28;20503;-62
2023/02/09 10:47:26;;;;;;;2.70;1.40;;;23.00;43.90;;;;;;5018180;28;20065;-63
2023/02/09 10:50:09;;;;;;;4.55;1.70;;;23.10;43.70;;;;;;5016073;28;20113;-63
2023/02/09 10:52:37;;;;;;;2.45;1.50;;;23.10;43.50;;;;;;5018711;28;20315;-62
2023/02/09 10:55:21;;;;;;;2.53;1.48;;;23.10;43.30;;;;;;5020218;28;20480;-63
2023/02/09 10:57:47;;;;;;;1.88;1.27;;;23.10;43.30;;;;;;5018373;28;20049;-62
2023/02/09 11:00:15;;;;;;;1.70;1.33;;;23.10;43.20;;;;;;5020420;28;20068;-62
2023/02/09 11:02:50;;;;;;;2.50;1.60;;;23.10;43.20;;;;;;5018414;28;20400;-63
2023/02/09 11:05:19;;;;;;;3.50;1.52;;;23.00;43.20;;;;;;5020206;28;20483;-62
2023/02/09 11:07:49;;;;;;;3.47;1.52;;;23.00;43.40;;;;;;5019532;28;20022;-62
2023/02/09 11:10:15;;;;;;;2.25;1.33;;;23.00;43.30;;;;;;5021640;28;20036;-63
2023/02/09 11:12:42;;;;;;;1.73;1.20;;;23.00;43.40;;;;;;5021043;28;20109;-62
2023/02/09 11:15:16;;;;;;;2.15;1.30;;;22.90;43.50;;;;;;5019974;28;20033;-62
2023/02/09 11:18:01;;;;;;;1.88;1.15;;;22.90;43.60;;;;;;5022616;28;20029;-62
2023/02/09 11:20:34;;;;;;;1.90;0.90;;;22.90;43.70;;;;;;5017144;28;20033;-62
2023/02/09 11:23:00;;;;;;;1.80;1.10;;;22.90;43.80;;;;;;5024412;28;20427;-63
2023/02/09 11:25:48;;;;;;;1.77;1.10;;;22.90;43.90;;;;;;5023040;28;20026;-62
2023/02/09 11:28:27;;;;;;;2.47;1.40;;;22.90;43.90;;;;;;5023066;28;20076;-65
2023/02/09 11:31:30;;;;;;;1.95;1.10;;;22.90;43.90;;;;;;5021076;28;20037;-62
2023/02/09 11:34:04;;;;;;;1.65;1.08;;;22.90;43.80;;;;;;5018911;28;20033;-62
2023/02/09 11:36:30;;;;;;;1.30;1.00;;;22.90;43.90;;;;;;5020666;28;20037;-63
2023/02/09 11:39:04;;;;;;;1.40;0.90;;;22.80;43.90;;;;;;5022121;28;20021;-62
2023/02/09 11:44:52;;;;;;;1.33;1.00;;;22.90;43.90;;;;;;5021649;28;20075;-63
2023/02/09 11:47:26;;;;;;;1.38;0.98;;;22.90;44.00;;;;;;5019949;28;20474;-64
2023/02/09 11:49:56;;;;;;;1.60;1.00;;;22.90;43.90;;;;;;5021230;28;20017;-63
2023/02/09 11:52:35;;;;;;;1.63;1.10;;;22.90;43.90;;;;;;5023598;28;20033;-65
2023/02/09 11:55:10;;;;;;;2.78;1.10;;;22.80;43.90;;;;;;5023944;28;20050;-65
2023/02/09 11:57:45;;;;;;;1.60;1.10;;;22.80;44.40;;;;;;5017993;28;20036;-66
2023/02/09 12:00:19;;;;;;;1.40;0.90;;;22.80;43.90;;;;;;5020786;28;20045;-67
2023/02/09 12:03:19;;;;;;;1.05;0.90;;;22.90;44.00;;;;;;5021219;28;20083;-67
2023/02/09 12:05:45;;;;;;;1.27;0.95;;;22.90;44.00;;;;;;5023699;28;20061;-67
2023/02/09 12:08:25;;;;;;;1.75;1.05;;;22.80;44.00;;;;;;5020006;28;20030;-67
2023/02/09 12:11:14;;;;;;;2.00;1.13;;;22.80;44.10;;;;;;5019097;28;20707;-66
2023/02/09 12:13:58;;;;;;;1.60;1.10;;;22.80;44.00;;;;;;5022062;28;20566;-68
2023/02/09 12:16:33;;;;;;;1.35;0.93;;;22.80;44.10;;;;;;5016570;28;20029;-69
2023/02/09 12:19:01;;;;;;;1.70;1.20;;;22.80;44.10;;;;;;5017078;28;20034;-68
2023/02/09 12:21:37;;;;;;;1.63;1.00;;;22.90;44.10;;;;;;5017986;28;20021;-69
2023/02/09 12:24:25;;;;;;;1.35;1.10;;;22.80;44.60;;;;;;5017944;28;20270;-68
2023/02/09 12:26:55;;;;;;;1.83;1.10;;;22.80;44.10;;;;;;5017080;28;20030;-68
2023/02/09 12:29:36;;;;;;;2.05;1.20;;;22.80;44.10;;;;;;5017901;28;20042;-68
2023/02/09 12:32:02;;;;;;;3.70;1.10;;;22.80;44.00;;;;;;5021345;28;20033;-67
2023/02/09 12:34:40;;;;;;;1.90;1.30;;;22.80;44.20;;;;;;5021333;28;20099;-67
2023/02/09 12:37:15;;;;;;;2.67;1.20;;;22.80;44.20;;;;;;5017898;28;20045;-68
2023/02/09 12:40:01;;;;;;;1.80;1.17;;;22.80;44.10;;;;;;5017734;28;20059;-67
2023/02/09 12:42:37;;;;;;;1.63;1.23;;;22.80;44.10;;;;;;5019196;28;20026;-68
2023/02/09 12:45:42;;;;;;;2.55;1.20;;;22.80;44.70;;;;;;5019843;28;20025;-68
2023/02/09 12:48:07;;;;;;;2.00;1.20;;;22.80;44.10;;;;;;5018118;28;20073;-68
2023/02/09 12:50:42;;;;;;;1.75;1.23;;;22.80;44.30;;;;;;5017711;28;20064;-68
2023/02/09 12:53:26;;;;;;;1.52;1.30;;;22.80;44.30;;;;;;5016441;28;20033;-68
2023/02/09 12:56:07;;;;;;;2.05;1.30;;;22.70;44.20;;;;;;5020853;28;20547;-67
2023/02/09 12:58:37;;;;;;;3.65;1.45;;;22.70;44.20;;;;;;5021717;28;20037;-68
2023/02/09 13:01:03;;;;;;;1.90;1.30;;;22.70;44.30;;;;;;5020172;28;20037;-68
2023/02/09 13:03:37;;;;;;;1.75;1.30;;;22.70;44.40;;;;;;5021616;28;20022;-67
2023/02/09 13:06:09;;;;;;;2.22;1.20;;;22.70;44.30;;;;;;5019542;28;20033;-68
2023/02/09 13:08:43;;;;;;;2.60;1.40;;;22.70;44.40;;;;;;5020524;28;20116;-68
2023/02/09 13:11:54;;;;;;;3.35;1.30;;;22.70;44.60;;;;;;5020360;28;20531;-68
2023/02/09 13:14:21;;;;;;;1.88;1.20;;;22.70;44.50;;;;;;5021128;28;20492;-68